Time;durP1;ratioP1;P1;durP2;ratioP2;P2;SDS_P1;SDS_P2;PMS_P1;PMS_P2;Temp;Humidity;BMP_temperature;BMP_pressure;BME280_temperature;BME280_humidity;BME280_pressure;Samples;Min_cycle;Max_cycle;Signal;HPM_P1;HPM_P2
2022/06/06 00:01:13;;;;;;;11.48;8.50;;;16.30;99.90;;;;;;5033331;28;20057;-72
2022/06/06 00:03:39;;;;;;;11.05;8.60;;;16.30;99.90;;;;;;5015990;28;20509;-73
2022/06/06 00:06:09;;;;;;;11.40;9.13;;;16.50;99.90;;;;;;5049709;28;20091;-74
2022/06/06 00:08:36;;;;;;;11.90;8.38;;;16.40;99.90;;;;;;5015704;28;20038;-73
2022/06/06 00:11:04;;;;;;;11.48;8.73;;;16.30;99.90;;;;;;5027283;28;20101;-72
2022/06/06 00:13:31;;;;;;;10.60;8.07;;;16.40;99.90;;;;;;5013494;28;20046;-72
2022/06/06 00:15:57;;;;;;;10.38;8.73;;;16.40;99.90;;;;;;5032567;28;20094;-73
2022/06/06 00:18:23;;;;;;;12.07;9.02;;;16.40;99.90;;;;;;5048690;28;20103;-72
2022/06/06 00:20:49;;;;;;;12.18;8.80;;;16.50;99.90;;;;;;5032886;28;20477;-72
2022/06/06 00:23:14;;;;;;;10.32;7.90;;;16.30;99.90;;;;;;5033048;28;20052;-72
2022/06/06 00:25:40;;;;;;;10.40;7.57;;;16.40;99.90;;;;;;5032071;28;20038;-72
2022/06/06 00:28:05;;;;;;;10.90;8.23;;;16.40;99.90;;;;;;5015273;28;20509;-71
2022/06/06 00:30:31;;;;;;;11.50;8.13;;;16.30;99.90;;;;;;5015440;28;20038;-70
2022/06/06 00:35:42;;;;;;;9.88;6.57;;;16.30;99.90;;;;;;5031688;28;20490;-71
2022/06/06 00:38:07;;;;;;;9.40;6.78;;;16.20;99.90;;;;;;5031692;28;20041;-71
2022/06/06 00:40:33;;;;;;;8.95;6.50;;;16.20;99.90;;;;;;5015898;28;20402;-70
2022/06/06 00:42:59;;;;;;;9.90;6.32;;;16.10;99.90;;;;;;5032394;28;20052;-70
2022/06/06 00:45:29;;;;;;;8.65;6.22;;;16.00;99.90;;;;;;5015185;28;20451;-71
2022/06/06 00:48:02;;;;;;;9.30;6.22;;;16.00;99.90;;;;;;5031741;28;20571;-70
2022/06/06 00:51:07;;;;;;;8.75;6.00;;;16.00;99.90;;;;;;5015952;28;20086;-70
2022/06/06 00:53:32;;;;;;;8.48;6.40;;;16.00;99.90;;;;;;5010345;28;20120;-70
2022/06/06 00:56:06;;;;;;;9.50;6.82;;;15.90;99.90;;;;;;5031957;28;20128;-70
2022/06/06 00:58:34;;;;;;;9.23;7.03;;;15.90;99.90;;;;;;5031636;28;20112;-70
2022/06/06 01:01:01;;;;;;;10.23;7.07;;;15.90;99.90;;;;;;5015000;28;20049;-70
2022/06/06 01:03:28;;;;;;;10.20;7.10;;;16.00;99.90;;;;;;5032177;28;20120;-70
2022/06/06 01:05:56;;;;;;;11.18;6.85;;;15.90;99.90;;;;;;5031959;28;20108;-70
2022/06/06 01:08:24;;;;;;;10.02;6.95;;;15.90;99.90;;;;;;5014872;28;20091;-70
2022/06/06 01:10:49;;;;;;;10.50;7.15;;;15.90;99.90;;;;;;5032319;28;20037;-70
2022/06/06 01:13:17;;;;;;;9.68;6.05;;;15.80;99.90;;;;;;5014919;28;20044;-70
2022/06/06 01:16:05;;;;;;;9.07;6.57;;;15.90;99.90;;;;;;5032144;28;20049;-70
2022/06/06 01:18:30;;;;;;;9.10;6.53;;;15.80;99.90;;;;;;5031050;28;20517;-71
2022/06/06 01:21:02;;;;;;;9.48;6.22;;;15.80;99.90;;;;;;5032095;28;20049;-71
2022/06/06 01:23:30;;;;;;;9.70;5.25;;;15.80;99.90;;;;;;5029892;28;20041;-72
2022/06/06 01:26:15;;;;;;;7.60;4.80;;;15.90;99.90;;;;;;5030161;28;20045;-72
2022/06/06 01:28:51;;;;;;;8.13;4.45;;;15.90;99.90;;;;;;5030207;28;20037;-72
2022/06/06 01:31:36;;;;;;;7.63;4.15;;;16.00;99.90;;;;;;5031976;28;20033;-72
2022/06/06 01:34:04;;;;;;;9.07;4.32;;;15.90;99.90;;;;;;5014875;28;20040;-72
2022/06/06 01:36:32;;;;;;;7.25;4.47;;;15.80;99.90;;;;;;5048308;28;20048;-72
2022/06/06 01:38:59;;;;;;;7.90;4.10;;;15.80;99.90;;;;;;5031105;28;20095;-72
2022/06/06 01:41:44;;;;;;;6.82;3.90;;;15.60;99.90;;;;;;5014681;28;20395;-72
2022/06/06 01:44:29;;;;;;;6.60;3.85;;;15.70;99.90;;;;;;5030783;28;20107;-72
2022/06/06 01:46:58;;;;;;;8.35;3.85;;;15.60;99.90;;;;;;5031513;28;20045;-72
2022/06/06 01:49:24;;;;;;;6.97;4.00;;;15.70;99.90;;;;;;5014627;28;20095;-71
2022/06/06 01:52:07;;;;;;;6.07;3.38;;;15.70;99.90;;;;;;5015290;28;20083;-70
2022/06/06 01:54:33;;;;;;;7.05;4.00;;;15.70;99.90;;;;;;5028413;28;20038;-70
2022/06/06 01:57:01;;;;;;;5.95;3.35;;;15.70;99.90;;;;;;5012266;28;20041;-70
2022/06/06 01:59:28;;;;;;;6.22;3.17;;;15.70;99.90;;;;;;5038284;28;20042;-70
2022/06/06 02:01:54;;;;;;;6.10;3.70;;;15.80;99.90;;;;;;5047290;28;20049;-70
2022/06/06 02:04:19;;;;;;;6.70;3.88;;;15.70;99.90;;;;;;5014233;28;20490;-71
2022/06/06 02:06:45;;;;;;;6.80;3.97;;;15.70;99.90;;;;;;5031485;28;20654;-71
2022/06/06 02:09:11;;;;;;;5.60;3.40;;;15.70;99.90;;;;;;5032703;28;20186;-71
2022/06/06 02:11:37;;;;;;;7.03;3.70;;;15.60;99.90;;;;;;5034560;28;20058;-71
2022/06/06 02:14:04;;;;;;;6.55;4.03;;;15.60;99.90;;;;;;5035221;28;20122;-70
2022/06/06 02:16:30;;;;;;;6.93;4.00;;;15.60;99.90;;;;;;5035278;28;20056;-71
2022/06/06 02:18:56;;;;;;;6.13;3.60;;;15.60;99.90;;;;;;5018113;28;20045;-71
2022/06/06 02:21:21;;;;;;;7.40;3.63;;;15.60;99.90;;;;;;5035246;28;20041;-70
2022/06/06 02:23:48;;;;;;;6.68;4.00;;;15.50;99.90;;;;;;5033860;28;20087;-70
2022/06/06 02:26:15;;;;;;;7.28;4.10;;;15.30;99.90;;;;;;5018742;28;20037;-70
2022/06/06 02:28:41;;;;;;;6.25;4.10;;;15.40;99.90;;;;;;5034208;28;20035;-70
2022/06/06 02:31:07;;;;;;;8.00;4.28;;;15.20;99.90;;;;;;5034964;28;20037;-70
2022/06/06 02:33:34;;;;;;;6.60;4.03;;;15.20;99.90;;;;;;5018485;28;20421;-70
2022/06/06 02:36:00;;;;;;;6.72;3.75;;;15.20;99.90;;;;;;5051453;28;20049;-70
2022/06/06 02:38:27;;;;;;;8.65;4.78;;;15.20;99.90;;;;;;5034419;28;20084;-70
2022/06/06 02:40:54;;;;;;;8.43;4.28;;;15.20;99.90;;;;;;5034621;28;20617;-71
2022/06/06 02:43:21;;;;;;;7.15;4.40;;;15.30;99.90;;;;;;5035012;28;20402;-71
2022/06/06 02:45:49;;;;;;;7.13;4.15;;;15.20;99.90;;;;;;5017537;28;20052;-71
2022/06/06 02:48:16;;;;;;;7.50;4.65;;;15.20;99.90;;;;;;5034013;28;20038;-71
2022/06/06 02:50:42;;;;;;;8.10;5.03;;;15.20;99.90;;;;;;5034048;28;20048;-70
2022/06/06 02:53:08;;;;;;;8.52;5.20;;;15.20;99.90;;;;;;5033807;28;20033;-71
2022/06/06 02:55:35;;;;;;;9.23;5.68;;;15.20;99.90;;;;;;5018180;28;20474;-71
2022/06/06 02:58:01;;;;;;;8.90;5.60;;;15.20;99.90;;;;;;5017158;28;20113;-71
2022/06/06 03:00:33;;;;;;;9.40;5.57;;;15.20;99.90;;;;;;5015886;28;20048;-71
2022/06/06 03:02:59;;;;;;;9.32;5.70;;;15.10;99.90;;;;;;5034447;28;20128;-71
2022/06/06 03:05:46;;;;;;;11.02;5.82;;;15.10;99.90;;;;;;5034261;28;20140;-71
2022/06/06 03:08:39;;;;;;;9.02;5.40;;;15.00;99.90;;;;;;5017106;28;20057;-71
2022/06/06 03:11:20;;;;;;;10.63;5.18;;;15.10;99.90;;;;;;5033595;28;20038;-71
2022/06/06 03:14:05;;;;;;;9.43;5.28;;;15.20;99.90;;;;;;5034395;28;20049;-71
2022/06/06 03:23:11;;;;;;;8.52;4.50;;;15.10;99.90;;;;;;5032982;28;20053;-71
2022/06/06 03:25:57;;;;;;;7.15;4.22;;;15.10;99.90;;;;;;5049840;28;20516;-71
2022/06/06 03:28:36;;;;;;;7.00;3.80;;;15.10;99.90;;;;;;5033286;28;20080;-71
2022/06/06 03:31:10;;;;;;;5.95;3.53;;;15.10;99.90;;;;;;5017256;28;20073;-71
2022/06/06 03:33:49;;;;;;;6.10;3.55;;;15.10;99.90;;;;;;5016766;28;20033;-71
2022/06/06 03:36:53;;;;;;;5.55;3.45;;;15.10;99.90;;;;;;5033231;28;20544;-71
2022/06/06 03:39:27;;;;;;;6.05;3.45;;;15.10;99.90;;;;;;5021366;28;20095;-71
2022/06/06 03:42:05;;;;;;;5.53;2.97;;;15.10;99.90;;;;;;5017343;28;20052;-72
2022/06/06 03:44:30;;;;;;;4.55;2.58;;;15.00;99.90;;;;;;5033039;28;20041;-71
2022/06/06 03:47:08;;;;;;;4.40;2.53;;;15.10;99.90;;;;;;5033479;28;20047;-72
2022/06/06 03:49:40;;;;;;;4.00;2.50;;;15.10;99.90;;;;;;5049974;28;20449;-72
2022/06/06 03:52:08;;;;;;;6.82;2.95;;;15.30;99.90;;;;;;5033115;28;20038;-72
2022/06/06 03:54:53;;;;;;;5.28;3.10;;;15.30;99.90;;;;;;5048308;28;20069;-71
2022/06/06 03:57:22;;;;;;;7.65;3.88;;;15.30;99.90;;;;;;5033314;28;20179;-72
2022/06/06 03:59:53;;;;;;;8.65;3.80;;;15.40;99.90;;;;;;5016450;28;20114;-72
2022/06/06 04:02:21;;;;;;;8.60;4.13;;;15.30;99.90;;;;;;5016838;28;20049;-72
2022/06/06 04:04:49;;;;;;;8.48;5.13;;;15.40;99.90;;;;;;5032649;28;20041;-72
2022/06/06 04:07:15;;;;;;;11.35;5.50;;;15.30;99.90;;;;;;5033015;28;20037;-72
2022/06/06 04:09:41;;;;;;;9.55;5.15;;;15.40;99.90;;;;;;5032377;28;20042;-72
2022/06/06 04:12:15;;;;;;;9.48;5.68;;;15.30;99.90;;;;;;5033351;28;20040;-72
2022/06/06 04:14:56;;;;;;;9.80;5.80;;;15.30;99.90;;;;;;5032473;28;20520;-71
2022/06/06 04:17:37;;;;;;;10.05;7.00;;;15.30;99.90;;;;;;5032934;28;20144;-71
2022/06/06 04:20:31;;;;;;;11.85;7.18;;;15.20;99.90;;;;;;5032607;28;20049;-72
2022/06/06 04:23:18;;;;;;;10.05;5.95;;;15.20;99.90;;;;;;5031926;28;20037;-71
2022/06/06 04:25:59;;;;;;;10.90;6.43;;;15.20;99.90;;;;;;5031594;28;20379;-71
2022/06/06 04:28:36;;;;;;;9.98;5.22;;;15.10;99.90;;;;;;5015857;28;20094;-71
2022/06/06 04:31:12;;;;;;;9.30;5.03;;;15.10;99.90;;;;;;5032262;28;20128;-71
2022/06/06 04:34:07;;;;;;;10.45;5.40;;;15.00;99.90;;;;;;5048273;28;20390;-70
2022/06/06 04:36:56;;;;;;;9.55;5.30;;;14.90;99.90;;;;;;5029977;28;20078;-71
2022/06/06 04:39:38;;;;;;;8.50;4.50;;;14.90;99.90;;;;;;5043508;28;20046;-70
2022/06/06 04:42:19;;;;;;;8.82;4.97;;;14.90;99.90;;;;;;5030814;28;20055;-70
2022/06/06 04:44:57;;;;;;;9.40;5.50;;;14.90;99.90;;;;;;5048208;28;20099;-70
2022/06/06 04:47:30;;;;;;;9.00;4.85;;;14.90;99.90;;;;;;5031478;28;20049;-70
2022/06/06 04:49:58;;;;;;;9.63;5.00;;;14.90;99.90;;;;;;5015028;28;20041;-70
2022/06/06 04:52:26;;;;;;;8.65;4.80;;;14.80;99.90;;;;;;5013938;28;20055;-70
2022/06/06 04:54:53;;;;;;;11.00;5.28;;;14.80;99.90;;;;;;5048988;28;20045;-70
2022/06/06 04:57:19;;;;;;;9.77;5.10;;;14.80;99.90;;;;;;5031358;28;20037;-70
2022/06/06 04:59:47;;;;;;;9.25;5.57;;;14.70;99.90;;;;;;5048915;28;20130;-70
2022/06/06 05:02:13;;;;;;;10.38;5.03;;;14.80;99.90;;;;;;5012222;28;20116;-70
2022/06/06 05:04:38;;;;;;;9.10;5.30;;;14.90;99.90;;;;;;5001375;28;20052;-70
2022/06/06 05:07:40;;;;;;;10.02;5.35;;;14.90;99.90;;;;;;5031132;28;20509;-70
2022/06/06 05:10:12;;;;;;;9.85;5.28;;;14.90;99.90;;;;;;5044735;28;20124;-70
2022/06/06 05:12:45;;;;;;;10.30;5.37;;;14.80;99.90;;;;;;5028036;28;20128;-70
2022/06/06 05:15:40;;;;;;;12.02;7.18;;;14.80;99.90;;;;;;5022448;28;20300;-70
2022/06/06 05:18:47;;;;;;;10.68;7.20;;;14.80;99.90;;;;;;5005761;28;20050;-70
2022/06/06 05:21:45;;;;;;;12.57;8.13;;;14.80;99.90;;;;;;5029283;28;20030;-70
2022/06/06 05:24:29;;;;;;;14.02;8.27;;;14.70;99.90;;;;;;5030509;28;20115;-69
2022/06/06 05:27:32;;;;;;;15.70;10.07;;;14.60;99.90;;;;;;5030002;28;20088;-70
2022/06/06 05:30:21;;;;;;;15.98;10.70;;;14.60;99.90;;;;;;5031969;28;20076;-69
2022/06/06 05:32:52;;;;;;;17.77;10.77;;;14.50;99.90;;;;;;5030132;28;20068;-70
2022/06/06 05:35:29;;;;;;;16.25;10.52;;;14.70;99.90;;;;;;5013394;28;20041;-70
2022/06/06 05:38:31;;;;;;;18.05;11.20;;;14.70;99.90;;;;;;5030889;28;20050;-69
2022/06/06 05:41:05;;;;;;;15.75;10.65;;;14.80;99.90;;;;;;5014358;28;20049;-69
2022/06/06 05:43:59;;;;;;;19.13;11.90;;;14.70;99.90;;;;;;5031385;28;20087;-70
2022/06/06 05:46:56;;;;;;;18.63;12.77;;;14.80;99.90;;;;;;5016702;28;20601;-70
2022/06/06 05:49:31;;;;;;;17.10;11.85;;;14.70;99.90;;;;;;5034349;28;20494;-70
2022/06/06 05:52:21;;;;;;;19.45;13.65;;;14.70;99.90;;;;;;5034366;28;20092;-70
2022/06/06 05:55:14;;;;;;;18.38;12.18;;;14.60;99.90;;;;;;5025825;28;20452;-70
2022/06/06 05:57:51;;;;;;;17.55;12.18;;;14.60;99.90;;;;;;5020165;28;20045;-70
2022/06/06 06:00:38;;;;;;;16.98;12.85;;;14.60;99.90;;;;;;5035544;28;20037;-70
2022/06/06 06:03:30;;;;;;;17.13;11.75;;;14.60;99.90;;;;;;5021904;28;20511;-70
2022/06/06 06:06:14;;;;;;;16.55;9.80;;;14.60;99.90;;;;;;5034796;28;20478;-70
2022/06/06 06:08:58;;;;;;;15.73;10.73;;;14.60;99.90;;;;;;5041403;28;20038;-70
2022/06/06 06:11:49;;;;;;;15.98;10.48;;;14.60;99.90;;;;;;5034792;28;20040;-70
2022/06/06 06:14:38;;;;;;;16.40;9.15;;;14.60;99.90;;;;;;5050211;28;20040;-70
2022/06/06 06:17:04;;;;;;;15.63;9.23;;;14.70;99.90;;;;;;5015433;28;20495;-70
2022/06/06 06:19:45;;;;;;;13.98;9.32;;;14.70;99.90;;;;;;5028722;28;20375;-70
2022/06/06 06:22:11;;;;;;;13.07;8.63;;;14.70;99.90;;;;;;5026409;28;20091;-70
2022/06/06 06:24:42;;;;;;;13.38;8.68;;;14.70;99.90;;;;;;5031029;28;20099;-71
2022/06/06 06:27:10;;;;;;;12.23;7.45;;;14.50;99.90;;;;;;5032323;28;20045;-71
2022/06/06 06:29:35;;;;;;;12.13;7.63;;;14.60;99.90;;;;;;5012249;28;20042;-71
2022/06/06 06:32:08;;;;;;;14.70;7.78;;;14.60;99.90;;;;;;5026695;28;20441;-71
2022/06/06 06:34:51;;;;;;;13.10;7.53;;;14.50;99.90;;;;;;5030966;28;20034;-70
2022/06/06 06:37:29;;;;;;;12.85;7.30;;;14.40;99.90;;;;;;5030752;28;20049;-70
2022/06/06 06:40:02;;;;;;;11.35;7.80;;;14.40;99.90;;;;;;5030096;28;20054;-70
2022/06/06 06:42:46;;;;;;;14.10;7.88;;;14.40;99.90;;;;;;5013190;28;20046;-70
2022/06/06 06:45:18;;;;;;;12.60;7.72;;;14.40;99.90;;;;;;5034698;28;20410;-70
2022/06/06 06:47:57;;;;;;;12.80;8.07;;;14.40;99.90;;;;;;5017921;28;20394;-70
2022/06/06 06:50:42;;;;;;;11.55;7.60;;;14.40;99.90;;;;;;5032139;28;20038;-71
2022/06/06 06:53:25;;;;;;;15.38;8.48;;;14.60;99.90;;;;;;5038797;28;20041;-71
2022/06/06 06:56:04;;;;;;;12.57;8.23;;;14.50;99.90;;;;;;5014947;28;20045;-71
2022/06/06 06:58:55;;;;;;;11.25;7.30;;;14.60;99.90;;;;;;5030746;28;20037;-71
2022/06/06 07:08:32;;;;;;;11.55;6.70;;;14.70;99.90;;;;;;5046260;28;20125;-70
2022/06/06 07:08:33;;;;;;;10.07;5.38;;;15.00;99.90;;;;;;5024774;28;20092;-71
2022/06/06 07:11:17;;;;;;;10.07;5.10;;;15.20;99.90;;;;;;5016686;28;20049;-71
2022/06/06 07:13:54;;;;;;;10.13;4.88;;;15.30;99.90;;;;;;5031588;28;20034;-70
2022/06/06 07:16:22;;;;;;;11.52;5.30;;;15.40;99.90;;;;;;5048625;28;20064;-71
2022/06/06 07:18:55;;;;;;;10.70;4.72;;;15.40;99.90;;;;;;5012625;28;20041;-71
2022/06/06 07:21:23;;;;;;;8.25;4.07;;;15.40;99.90;;;;;;5025872;28;20033;-71
2022/06/06 07:23:50;;;;;;;7.50;3.92;;;15.70;99.90;;;;;;5013966;28;20073;-70
2022/06/06 07:26:17;;;;;;;10.00;4.00;;;15.90;99.90;;;;;;5029223;28;20037;-70
2022/06/06 07:28:44;;;;;;;11.07;4.40;;;15.90;99.90;;;;;;5026281;28;20033;-70
2022/06/06 07:31:26;;;;;;;10.23;4.00;;;16.00;99.90;;;;;;5031663;28;20064;-70
2022/06/06 07:34:14;;;;;;;7.75;3.92;;;16.00;99.90;;;;;;5032308;28;20520;-70
2022/06/06 07:36:45;;;;;;;9.27;3.38;;;16.00;99.90;;;;;;5032831;28;20076;-70
2022/06/06 07:39:19;;;;;;;6.90;3.40;;;15.90;99.90;;;;;;5015125;28;20049;-69
2022/06/06 07:41:57;;;;;;;7.50;3.25;;;15.80;99.90;;;;;;5032614;28;20056;-70
2022/06/06 07:44:38;;;;;;;6.03;2.70;;;15.90;99.90;;;;;;5048280;28;20042;-70
2022/06/06 07:47:20;;;;;;;8.38;3.13;;;16.10;99.90;;;;;;5031867;28;20489;-70
2022/06/06 07:50:21;;;;;;;6.75;2.90;;;16.10;99.90;;;;;;5031205;28;20080;-70
2022/06/06 07:53:03;;;;;;;6.00;2.70;;;16.10;99.90;;;;;;5008691;28;20037;-70
2022/06/06 07:56:02;;;;;;;7.07;2.65;;;16.00;99.90;;;;;;5020630;28;20046;-70
2022/06/06 07:58:51;;;;;;;7.50;3.40;;;16.10;99.90;;;;;;5045117;28;20528;-70
2022/06/06 08:01:25;;;;;;;8.45;3.30;;;16.10;99.90;;;;;;5030790;28;20034;-70
2022/06/06 08:04:15;;;;;;;8.75;3.53;;;16.10;99.90;;;;;;5030573;28;20600;-70
2022/06/06 08:06:46;;;;;;;8.77;3.15;;;16.10;99.90;;;;;;5031336;28;20041;-70
2022/06/06 08:09:30;;;;;;;7.97;3.47;;;16.20;99.90;;;;;;5031034;28;20046;-70
2022/06/06 08:12:05;;;;;;;8.93;3.38;;;16.30;99.90;;;;;;5048987;28;20041;-70
2022/06/06 08:14:59;;;;;;;9.98;3.67;;;16.40;99.90;;;;;;5031497;28;20467;-70
2022/06/06 08:17:56;;;;;;;8.43;4.18;;;16.50;99.90;;;;;;5014805;28;20128;-70
2022/06/06 08:20:21;;;;;;;8.40;4.25;;;16.60;99.90;;;;;;5029086;28;20528;-70
2022/06/06 08:22:50;;;;;;;10.02;3.45;;;16.60;99.90;;;;;;5030635;28;20116;-71
2022/06/06 08:25:16;;;;;;;9.05;4.50;;;16.60;99.90;;;;;;5048200;28;20486;-70
2022/06/06 08:27:45;;;;;;;8.48;4.15;;;16.60;99.90;;;;;;5039830;28;20061;-70
2022/06/06 08:30:12;;;;;;;8.30;4.18;;;16.70;99.90;;;;;;5030049;28;20072;-71
2022/06/06 08:32:38;;;;;;;7.45;3.05;;;16.70;99.90;;;;;;5013214;28;20033;-70
2022/06/06 08:35:04;;;;;;;12.63;4.35;;;16.90;99.90;;;;;;5028289;28;20091;-70
2022/06/06 08:37:51;;;;;;;8.02;4.10;;;16.90;99.90;;;;;;5027440;28;20437;-70
2022/06/06 08:40:57;;;;;;;11.90;4.57;;;16.90;99.90;;;;;;5021771;28;20140;-71
2022/06/06 08:43:44;;;;;;;6.65;2.38;;;16.90;99.90;;;;;;5031175;28;20041;-70
2022/06/06 08:46:45;;;;;;;10.85;3.80;;;16.90;99.90;;;;;;5015484;28;20255;-71
2022/06/06 08:52:47;;;;;;;7.60;3.92;;;16.90;99.90;;;;;;5030836;28;20413;-70
2022/06/06 08:55:28;;;;;;;9.40;3.95;;;16.90;99.90;;;;;;5029431;28;20099;-71
2022/06/06 08:58:02;;;;;;;8.00;3.47;;;16.80;99.90;;;;;;5030863;28;20037;-70
2022/06/06 09:00:40;;;;;;;7.07;3.30;;;16.90;99.90;;;;;;5027746;28;20042;-70
2022/06/06 09:03:46;;;;;;;6.43;2.92;;;16.90;99.90;;;;;;5039784;28;20034;-71
2022/06/06 09:06:46;;;;;;;8.73;4.30;;;17.10;99.90;;;;;;5016936;28;20081;-71
2022/06/06 09:09:53;;;;;;;8.07;2.88;;;17.30;99.90;;;;;;5031272;28;20379;-70
2022/06/06 09:12:22;;;;;;;5.78;2.45;;;17.50;99.90;;;;;;5001012;28;20054;-71
2022/06/06 09:15:19;;;;;;;6.35;2.40;;;17.60;99.90;;;;;;5028745;28;20045;-71
2022/06/06 09:18:09;;;;;;;5.40;1.98;;;17.70;99.90;;;;;;5029109;28;20091;-71
2022/06/06 09:20:42;;;;;;;4.32;1.83;;;17.90;99.90;;;;;;5030807;28;20042;-71
2022/06/06 09:23:47;;;;;;;7.75;2.30;;;18.00;99.90;;;;;;5028099;28;21541;-71
2022/06/06 09:26:24;;;;;;;7.40;2.38;;;17.90;99.90;;;;;;5030220;28;20069;-71
2022/06/06 09:29:37;;;;;;;5.07;2.10;;;17.80;99.90;;;;;;5028034;28;20128;-71
2022/06/06 09:32:37;;;;;;;4.72;1.98;;;17.60;99.90;;;;;;4985262;28;20050;-71
2022/06/06 09:35:14;;;;;;;6.20;1.98;;;17.70;99.90;;;;;;5018854;28;20120;-71
2022/06/06 09:38:01;;;;;;;6.78;2.00;;;18.00;99.90;;;;;;5030476;28;20037;-72
2022/06/06 09:40:43;;;;;;;3.65;1.90;;;17.90;99.90;;;;;;5019922;28;20564;-72
2022/06/06 09:43:14;;;;;;;;;;;17.80;99.90;;;;;;5049294;28;20507;-72
2022/06/06 09:46:10;;;;;;;4.78;1.63;;;17.70;99.90;;;;;;5011947;28;20293;-72
2022/06/06 09:49:15;;;;;;;6.63;1.50;;;17.50;99.90;;;;;;5027003;28;20041;-72
2022/06/06 09:51:53;;;;;;;4.07;1.73;;;17.30;99.90;;;;;;4994729;28;20053;-72
2022/06/06 10:00:27;;;;;;;;;;;16.80;99.90;;;;;;5020828;28;20497;-72
2022/06/06 10:03:17;;;;;;;4.90;1.85;;;16.70;99.90;;;;;;5029175;28;20286;-73
2022/06/06 10:06:26;;;;;;;7.75;1.90;;;16.70;99.90;;;;;;5030415;28;20387;-73
2022/06/06 10:09:26;;;;;;;6.95;2.00;;;16.70;99.90;;;;;;5037925;28;20041;-73
2022/06/06 10:12:01;;;;;;;6.90;1.90;;;16.60;99.90;;;;;;5046222;28;20041;-73
2022/06/06 10:15:07;;;;;;;5.95;2.00;;;16.50;99.90;;;;;;5030879;28;20061;-72
2022/06/06 10:17:52;;;;;;;7.03;2.58;;;16.50;99.90;;;;;;5047297;28;20509;-72
2022/06/06 10:20:46;;;;;;;5.65;2.55;;;16.50;99.90;;;;;;5020058;28;20106;-72
2022/06/06 10:23:35;;;;;;;4.22;1.70;;;16.50;99.90;;;;;;5027284;28;20041;-72
2022/06/06 10:26:19;;;;;;;4.97;1.80;;;16.60;99.90;;;;;;5031180;28;20049;-72
2022/06/06 10:29:03;;;;;;;7.82;1.98;;;16.70;99.90;;;;;;5028224;28;20037;-72
2022/06/06 10:31:47;;;;;;;6.78;2.15;;;16.60;99.90;;;;;;5016115;28;20393;-71
2022/06/06 10:34:51;;;;;;;5.43;1.60;;;16.70;99.90;;;;;;5031778;28;20042;-71
2022/06/06 10:38:01;;;;;;;3.63;1.20;;;16.40;99.90;;;;;;5027052;28;20606;-71
2022/06/06 10:40:57;;;;;;;4.53;1.20;;;16.10;99.90;;;;;;5032023;28;20428;-71
2022/06/06 10:43:22;;;;;;;4.57;1.67;;;15.80;99.90;;;;;;5050566;28;20049;-71
2022/06/06 10:46:08;;;;;;;3.53;1.55;;;15.60;99.90;;;;;;5032628;28;20045;-71
2022/06/06 10:49:02;;;;;;;6.15;1.75;;;15.50;99.90;;;;;;5033742;28;20470;-71
2022/06/06 10:51:47;;;;;;;3.40;1.80;;;15.40;99.90;;;;;;5032629;28;20030;-71
2022/06/06 10:54:25;;;;;;;5.10;2.00;;;15.50;99.90;;;;;;5021952;28;20045;-71
2022/06/06 10:56:56;;;;;;;7.22;2.67;;;15.60;99.90;;;;;;5033351;28;20045;-70
2022/06/06 10:59:40;;;;;;;5.97;2.75;;;15.60;99.90;;;;;;5046028;28;20494;-71
2022/06/06 11:02:45;;;;;;;7.47;2.83;;;15.70;99.90;;;;;;5032196;28;20069;-70
2022/06/06 11:05:34;;;;;;;6.13;3.35;;;15.90;99.90;;;;;;5031250;28;20407;-71
2022/06/06 11:08:28;;;;;;;7.20;3.05;;;16.20;99.90;;;;;;5015533;28;20707;-71
2022/06/06 11:11:38;;;;;;;5.38;2.80;;;16.50;99.90;;;;;;5030342;28;20045;-71
2022/06/06 11:14:13;;;;;;;6.07;2.38;;;16.70;99.90;;;;;;5017365;28;20085;-71
2022/06/06 11:17:12;;;;;;;3.63;1.90;;;16.90;99.90;;;;;;5033634;28;20512;-72
2022/06/06 11:19:53;;;;;;;4.07;1.80;;;17.00;99.90;;;;;;5031557;28;20449;-72
2022/06/06 11:22:31;;;;;;;3.03;1.73;;;17.00;99.90;;;;;;5033025;28;20095;-71
2022/06/06 11:25:11;;;;;;;3.75;1.80;;;17.20;99.90;;;;;;5030539;28;20069;-71
2022/06/06 11:28:11;;;;;;;5.00;2.15;;;17.40;99.90;;;;;;5016962;28;20069;-72
2022/06/06 11:30:51;;;;;;;4.45;1.98;;;17.50;99.90;;;;;;5038098;28;20042;-71
2022/06/06 11:33:53;;;;;;;5.55;2.10;;;17.60;99.90;;;;;;5046498;28;20061;-72
2022/06/06 11:36:45;;;;;;;6.70;2.25;;;17.80;99.90;;;;;;5016414;28;20091;-71
2022/06/06 11:39:29;;;;;;;4.93;3.13;;;17.70;99.90;;;;;;5016205;28;20137;-71
2022/06/06 11:42:17;;;;;;;5.00;1.88;;;17.50;99.90;;;;;;5030868;28;20121;-71
2022/06/06 11:44:55;;;;;;;9.05;2.50;;;17.40;99.90;;;;;;5016616;28;20041;-71
2022/06/06 11:47:43;;;;;;;6.05;2.40;;;17.10;99.90;;;;;;5048803;28;20042;-72
2022/06/06 11:51:00;;;;;;;6.65;2.17;;;17.10;99.90;;;;;;5032566;28;20052;-72
2022/06/06 11:53:48;;;;;;;3.60;1.85;;;17.30;99.90;;;;;;5032160;28;20037;-72
2022/06/06 11:56:32;;;;;;;4.72;1.50;;;17.30;99.90;;;;;;5044804;28;20129;-72
2022/06/06 11:59:10;;;;;;;3.20;1.52;;;17.20;99.90;;;;;;5050144;28;20057;-72
2022/06/06 12:02:02;;;;;;;3.42;1.40;;;17.40;99.90;;;;;;5040033;28;20400;-72
2022/06/06 12:04:49;;;;;;;4.13;1.70;;;17.60;99.90;;;;;;5036852;28;20557;-72
2022/06/06 12:07:20;;;;;;;5.63;2.10;;;17.70;99.90;;;;;;5028678;28;20506;-72
2022/06/06 12:10:01;;;;;;;4.60;2.00;;;17.90;99.90;;;;;;5036201;28;20055;-69
2022/06/06 12:13:03;;;;;;;6.97;2.10;;;18.00;99.90;;;;;;5047469;28;20486;-73
2022/06/06 12:15:55;;;;;;;4.47;1.90;;;17.90;99.90;;;;;;5039146;28;20116;-73
2022/06/06 12:18:40;;;;;;;6.13;1.87;;;17.90;99.90;;;;;;5019777;28;20073;-73
2022/06/06 12:21:43;;;;;;;3.22;1.25;;;17.80;99.90;;;;;;5016109;28;20556;-73
2022/06/06 12:24:43;;;;;;;2.50;1.15;;;17.80;99.90;;;;;;5031871;28;20466;-73
2022/06/06 12:27:19;;;;;;;3.17;1.20;;;17.80;99.90;;;;;;5030813;28;20049;-73
2022/06/06 12:30:07;;;;;;;5.72;1.02;;;17.90;99.90;;;;;;5016544;28;20033;-73
2022/06/06 12:32:44;;;;;;;3.35;1.02;;;18.00;99.90;;;;;;5032593;28;20048;-73
2022/06/06 12:35:21;;;;;;;4.07;1.23;;;18.00;99.90;;;;;;5015776;28;20041;-73
2022/06/06 12:37:46;;;;;;;3.42;1.08;;;18.10;99.90;;;;;;5015979;28;20489;-73
2022/06/06 12:40:25;;;;;;;2.40;1.20;;;18.10;99.90;;;;;;5041403;28;20057;-73
2022/06/06 12:43:04;;;;;;;5.18;2.08;;;18.10;99.90;;;;;;5032244;28;20056;-74
2022/06/06 12:45:44;;;;;;;1.17;0.85;;;17.90;99.90;;;;;;5032020;28;20045;-73
2022/06/06 12:48:29;;;;;;;3.40;0.82;;;18.00;99.90;;;;;;5028795;28;20042;-74
2022/06/06 12:51:23;;;;;;;2.10;1.00;;;18.00;99.90;;;;;;5020356;28;20045;-74
2022/06/06 12:53:55;;;;;;;3.13;1.00;;;17.90;99.90;;;;;;5015640;28;20128;-74
2022/06/06 12:56:37;;;;;;;;;;;17.80;99.90;;;;;;5033392;28;20433;-74
2022/06/06 12:59:21;;;;;;;3.70;1.42;;;17.80;99.90;;;;;;5015414;28;20397;-74
2022/06/06 13:01:51;;;;;;;5.72;1.92;;;17.60;99.90;;;;;;5015807;28;20067;-74
2022/06/06 13:04:51;;;;;;;3.58;1.58;;;17.50;99.90;;;;;;4995942;28;20052;-74
2022/06/06 13:07:34;;;;;;;4.80;1.50;;;17.50;99.90;;;;;;5011905;28;20038;-74
2022/06/06 13:10:22;;;;;;;4.70;1.48;;;17.20;99.90;;;;;;5042064;28;20440;-68
2022/06/06 13:13:24;;;;;;;2.60;1.48;;;17.20;99.90;;;;;;5030595;28;20045;-74
2022/06/06 13:16:13;;;;;;;4.30;1.60;;;17.20;99.90;;;;;;5030828;28;20052;-68
2022/06/06 13:18:42;;;;;;;6.18;2.05;;;17.10;99.90;;;;;;5030861;28;20112;-68
2022/06/06 13:21:40;;;;;;;4.90;1.85;;;17.10;99.90;;;;;;5030813;28;20037;-69
2022/06/06 13:24:26;;;;;;;7.00;2.17;;;17.10;99.90;;;;;;5011348;28;20046;-73
2022/06/06 13:27:12;;;;;;;4.70;2.33;;;17.10;99.90;;;;;;5007158;28;20033;-74
2022/06/06 13:29:38;;;;;;;6.78;1.80;;;17.00;99.90;;;;;;5047125;28;20049;-74
2022/06/06 13:32:27;;;;;;;3.58;1.40;;;17.00;99.90;;;;;;5031200;28;20042;-74
2022/06/06 13:35:18;;;;;;;3.60;1.25;;;17.10;99.90;;;;;;5029934;28;20056;-74
2022/06/06 13:38:01;;;;;;;3.28;1.30;;;17.10;99.90;;;;;;5030569;28;20046;-74
2022/06/06 13:40:37;;;;;;;3.40;1.40;;;17.00;99.90;;;;;;5029710;28;20057;-75
2022/06/06 13:43:35;;;;;;;1.98;1.20;;;17.00;99.90;;;;;;5013663;28;20045;-74
2022/06/06 13:46:26;;;;;;;4.05;1.67;;;17.00;99.90;;;;;;5029126;28;20125;-74
2022/06/06 13:49:08;;;;;;;4.25;1.25;;;17.00;99.90;;;;;;5029263;28;20049;-74
2022/06/06 13:51:41;;;;;;;3.13;1.42;;;16.90;99.90;;;;;;5014526;28;20038;-74
2022/06/06 13:54:10;;;;;;;3.60;1.50;;;16.80;99.90;;;;;;5030628;28;20371;-74
2022/06/06 13:56:41;;;;;;;2.83;1.50;;;16.70;99.90;;;;;;5026806;28;20051;-75
2022/06/06 13:59:26;;;;;;;3.58;1.50;;;16.70;99.90;;;;;;5039931;28;20091;-71
2022/06/06 14:02:10;;;;;;;4.55;1.80;;;16.60;99.90;;;;;;5030339;28;20505;-70
2022/06/06 14:04:53;;;;;;;3.60;1.75;;;16.50;99.90;;;;;;5015118;28;20124;-72
2022/06/06 14:07:33;;;;;;;6.13;3.10;;;16.50;99.90;;;;;;5017838;28;20458;-72
2022/06/06 14:10:04;;;;;;;5.90;2.35;;;16.40;99.90;;;;;;5033301;28;20041;-72
2022/06/06 14:12:48;;;;;;;4.97;2.50;;;16.20;99.90;;;;;;5034515;28;20038;-72